createdAt,value
2022-10-28T00:00:49.764Z,100456.53
2022-10-28T00:03:17.339Z,100455.53
2022-10-28T00:05:44.171Z,100450.25
2022-10-28T00:08:11.737Z,100454.63
2022-10-28T00:10:39.957Z,100446.47
2022-10-28T00:13:06.992Z,100451.91
2022-10-28T00:15:34.658Z,100452.16
2022-10-28T00:18:01.601Z,100450.09
2022-10-28T00:20:30.632Z,100440.72
2022-10-28T00:22:57.440Z,100444.72
2022-10-28T00:25:24.172Z,100447.44
2022-10-28T00:27:52.948Z,100450.84
2022-10-28T00:30:20.242Z,100439.94
2022-10-28T00:32:47.169Z,100441.84
2022-10-28T00:35:14.314Z,100452.34
2022-10-28T00:37:41.096Z,100447.75
2022-10-28T00:40:09.832Z,100439.19
2022-10-28T00:42:36.673Z,100451.38
2022-10-28T00:45:06.440Z,100455.97
2022-10-28T00:47:48.535Z,100463.38
2022-10-28T00:50:30.059Z,100464.41
2022-10-28T00:53:02.154Z,100461.75
2022-10-28T00:55:31.732Z,100467.22
2022-10-28T00:58:01.901Z,100462.34
2022-10-28T01:00:30.347Z,100465.91
2022-10-28T01:02:57.240Z,100468.63
2022-10-28T01:05:29.558Z,100460.19
2022-10-28T01:08:01.055Z,100457.47
2022-10-28T01:10:57.601Z,100451.44
2022-10-28T01:13:40.372Z,100448.88
2022-10-28T01:16:26.025Z,100460.19
2022-10-28T01:19:17.404Z,100461.88
2022-10-28T01:22:06.473Z,100459.97
2022-10-28T01:25:00.724Z,100454.16
2022-10-28T01:28:08.961Z,100449.19
2022-10-28T01:31:09.151Z,100452.72
2022-10-28T01:33:44.495Z,100443.50
2022-10-28T01:36:17.525Z,100442.44
2022-10-28T01:38:55.955Z,100440.19
2022-10-28T01:41:34.552Z,100449.63
2022-10-28T01:44:08.741Z,100448.78
2022-10-28T01:46:45.362Z,100445.22
2022-10-28T01:49:22.548Z,100440.63
2022-10-28T01:51:55.340Z,100442.06
2022-10-28T01:54:28.351Z,100448.78
2022-10-28T01:56:59.089Z,100436.72
2022-10-28T01:59:30.534Z,100442.84
2022-10-28T02:01:58.918Z,100439.03
2022-10-28T02:04:25.950Z,100445.94
2022-10-28T02:06:56.974Z,100434.91
2022-10-28T02:09:43.522Z,100427.84
2022-10-28T02:12:25.240Z,100455.69
2022-10-28T02:15:38.196Z,100441.44
2022-10-28T02:18:32.030Z,100436.22
2022-10-28T02:21:05.834Z,100442.66
2022-10-28T02:23:46.419Z,100438.28
2022-10-28T02:26:21.827Z,100427.59
2022-10-28T02:28:57.116Z,100427.94
2022-10-28T02:31:31.515Z,100428.34
2022-10-28T02:34:06.861Z,100426.03
2022-10-28T02:36:40.197Z,100419.94
2022-10-28T02:39:08.370Z,100422.66
2022-10-28T02:41:43.484Z,100415.28
2022-10-28T02:44:17.879Z,100420.50
2022-10-28T02:46:50.960Z,100411.53
2022-10-28T02:49:19.858Z,100419.53
2022-10-28T02:51:54.532Z,100419.53
2022-10-28T02:54:27.901Z,100413.25
2022-10-28T02:57:03.184Z,100420.75
2022-10-28T02:59:30.202Z,100410.47
2022-10-28T03:01:57.419Z,100416.91
2022-10-28T03:04:25.684Z,100412.44
2022-10-28T03:06:52.460Z,100421.03
2022-10-28T03:09:19.345Z,100424.34
2022-10-28T03:11:46.092Z,100426.41
2022-10-28T03:14:15.290Z,100421.03
2022-10-28T03:16:42.537Z,100427.50
2022-10-28T03:21:42.508Z,100423.53
2022-10-28T03:24:09.314Z,100419.31
2022-10-28T03:26:36.294Z,100414.50
2022-10-28T03:29:03.127Z,100417.22
2022-10-28T03:31:30.494Z,100420.50
2022-10-28T03:33:57.728Z,100414.50
2022-10-28T03:36:24.757Z,100421.13
2022-10-28T03:38:53.296Z,100416.31
2022-10-28T03:41:20.432Z,100424.47
2022-10-28T03:43:47.976Z,100412.31
2022-10-28T03:46:14.739Z,100405.81
2022-10-28T03:48:41.502Z,100409.19
2022-10-28T03:51:08.328Z,100401.88
2022-10-28T03:53:35.213Z,100408.59
2022-10-28T03:56:04.618Z,100399.38
2022-10-28T03:58:31.546Z,100398.31
2022-10-28T04:00:58.494Z,100393.50
2022-10-28T04:03:26.347Z,100399.81
2022-10-28T04:05:54.166Z,100385.69
2022-10-28T04:08:22.064Z,100394.66
2022-10-28T04:10:49.208Z,100393.63
2022-10-28T04:13:17.895Z,100392.56
2022-10-28T04:15:45.105Z,100387.28
2022-10-28T04:18:12.034Z,100381.19
2022-10-28T04:20:39.166Z,100388.06
2022-10-28T04:23:06.170Z,100387.59
2022-10-28T04:25:33.167Z,100386.31
2022-10-28T04:27:59.994Z,100387.78
2022-10-28T04:30:28.056Z,100379.16
2022-10-28T04:32:54.776Z,100374.94
2022-10-28T04:35:21.802Z,100388.09
2022-10-28T04:37:48.708Z,100390.19
2022-10-28T04:40:15.982Z,100392.78
2022-10-28T04:42:42.789Z,100386.94
2022-10-28T04:45:10.816Z,100386.72
2022-10-28T04:47:39.015Z,100388.38
2022-10-28T04:50:07.214Z,100385.41
2022-10-28T04:52:34.017Z,100377.47
2022-10-28T04:55:00.847Z,100375.38
2022-10-28T04:57:27.641Z,100376.44
2022-10-28T04:59:54.742Z,100376.66
2022-10-28T05:02:22.891Z,100376.91
2022-10-28T05:04:52.487Z,100376.06
2022-10-28T05:07:21.377Z,100378.78
2022-10-28T05:09:50.495Z,100372.50
2022-10-28T05:12:17.268Z,100369.53
2022-10-28T05:14:44.055Z,100362.06
2022-10-28T05:17:11.593Z,100354.97
2022-10-28T05:19:38.690Z,100350.81
2022-10-28T05:22:07.078Z,100345.38
2022-10-28T05:24:33.988Z,100346.41
2022-10-28T05:27:03.340Z,100357.50
2022-10-28T05:29:33.296Z,100358.63
2022-10-28T05:32:01.528Z,100343.44
2022-10-28T05:34:28.944Z,100347.78
2022-10-28T05:37:33.499Z,100347.06
2022-10-28T05:40:05.029Z,100368.56
2022-10-28T05:42:32.604Z,100363.72
2022-10-28T05:45:02.133Z,100354.88
2022-10-28T05:47:29.177Z,100362.00
2022-10-28T05:49:55.910Z,100371.81
2022-10-28T05:52:24.181Z,100374.53
2022-10-28T05:54:52.468Z,100371.06
2022-10-28T05:57:19.295Z,100369.16
2022-10-28T05:59:46.304Z,100373.31
2022-10-28T06:02:15.075Z,100369.31
2022-10-28T06:04:42.276Z,100373.47
2022-10-28T06:07:09.577Z,100365.94
2022-10-28T06:09:36.495Z,100368.03
2022-10-28T06:12:05.072Z,100358.91
2022-10-28T06:14:32.426Z,100367.97
2022-10-28T06:16:59.262Z,100366.97
2022-10-28T06:19:26.171Z,100367.38
2022-10-28T06:21:53.000Z,100357.72
2022-10-28T06:24:20.192Z,100358.94
2022-10-28T06:26:47.013Z,100356.84
2022-10-28T06:29:15.434Z,100350.56
2022-10-28T06:31:42.585Z,100351.84
2022-10-28T06:34:11.752Z,100343.25
2022-10-28T06:36:38.882Z,100346.38
2022-10-28T06:39:05.944Z,100343.03
2022-10-28T06:41:33.180Z,100350.66
2022-10-28T06:44:00.784Z,100354.31
2022-10-28T06:46:29.442Z,100359.47
2022-10-28T06:48:57.969Z,100370.53
2022-10-28T06:51:25.217Z,100376.56
2022-10-28T06:53:52.768Z,100381.09
2022-10-28T06:56:19.784Z,100377.03
2022-10-28T06:58:50.501Z,100386.72
2022-10-28T07:01:18.097Z,100386.81
2022-10-28T07:03:47.057Z,100396.16
2022-10-28T07:06:15.383Z,100403.56
2022-10-28T07:08:42.657Z,100406.19
2022-10-28T07:11:09.404Z,100408.47
2022-10-28T07:13:36.223Z,100403.94
2022-10-28T07:16:04.038Z,100410.09
2022-10-28T07:18:31.084Z,100412.84
2022-10-28T07:21:00.792Z,100415.56
2022-10-28T07:23:28.384Z,100419.97
2022-10-28T07:25:57.101Z,100420.31
2022-10-28T07:28:26.457Z,100422.34
2022-10-28T07:30:54.218Z,100423.38
2022-10-28T07:33:21.227Z,100419.13
2022-10-28T07:35:48.245Z,100412.56
2022-10-28T07:38:16.811Z,100416.44
2022-10-28T07:40:44.101Z,100427.16
2022-10-28T07:43:11.641Z,100423.53
2022-10-28T07:45:39.521Z,100416.00
2022-10-28T07:49:13.923Z,100415.56
2022-10-28T07:51:37.539Z,100419.66
2022-10-28T07:54:06.194Z,100425.56
2022-10-28T07:56:33.065Z,100425.56
2022-10-28T07:59:00.730Z,100413.25
2022-10-28T08:01:27.808Z,100424.22
2022-10-28T08:03:54.803Z,100429.50
2022-10-28T08:06:22.120Z,100434.38
2022-10-28T08:08:55.206Z,100442.00
2022-10-28T08:11:24.305Z,100444.97
2022-10-28T08:13:52.882Z,100459.44
2022-10-28T08:16:20.273Z,100446.84
2022-10-28T08:18:47.325Z,100456.47
2022-10-28T08:21:15.701Z,100444.97
2022-10-28T08:23:42.646Z,100441.78
2022-10-28T08:26:09.485Z,100431.34
2022-10-28T08:28:37.770Z,100429.47
2022-10-28T08:31:09.705Z,100429.47
2022-10-28T08:33:38.343Z,100431.56
2022-10-28T08:36:06.569Z,100430.59
2022-10-28T08:38:33.810Z,100423.94
2022-10-28T08:41:19.275Z,100428.59
2022-10-28T08:44:15.795Z,100417.78
2022-10-28T08:47:05.609Z,100433.69
2022-10-28T08:49:39.139Z,100440.94
2022-10-28T08:52:24.066Z,100436.19
2022-10-28T08:54:58.701Z,100442.38
2022-10-28T08:57:38.088Z,100445.81
2022-10-28T09:00:22.631Z,100454.69
2022-10-28T09:03:06.860Z,100456.69
2022-10-28T09:05:34.372Z,100452.69
2022-10-28T09:08:02.803Z,100449.84
2022-10-28T09:11:04.047Z,100464.34
2022-10-28T09:13:50.887Z,100455.75
2022-10-28T09:16:40.694Z,100417.34
2022-10-28T09:19:24.353Z,100376.41
2022-10-28T09:22:13.762Z,100387.19
2022-10-28T09:24:50.142Z,100384.22
2022-10-28T09:27:46.631Z,100382.25
2022-10-28T09:30:34.877Z,100372.47
2022-10-28T09:33:18.098Z,100375.66
2022-10-28T09:35:48.169Z,100389.41
2022-10-28T09:38:26.924Z,100384.69
2022-10-28T09:41:02.669Z,100408.22
2022-10-28T09:43:33.166Z,100415.63
2022-10-28T09:46:07.815Z,100415.06
2022-10-28T09:48:40.911Z,100401.56
2022-10-28T09:51:25.803Z,100412.97
2022-10-28T09:53:57.739Z,100399.84
2022-10-28T09:56:26.444Z,100383.97
2022-10-28T09:58:58.069Z,100393.28
2022-10-28T10:01:25.466Z,100403.75
2022-10-28T10:03:53.707Z,100402.66
2022-10-28T10:06:28.985Z,100388.38
2022-10-28T10:08:56.854Z,100401.03
2022-10-28T10:11:36.353Z,100414.31
2022-10-28T10:14:09.813Z,100414.97
2022-10-28T10:16:42.424Z,100417.41
2022-10-28T10:19:11.909Z,100409.75
2022-10-28T10:21:45.581Z,100407.59
2022-10-28T10:24:33.785Z,100397.31
2022-10-28T10:27:12.495Z,100422.47
2022-10-28T10:29:47.181Z,100418.59
2022-10-28T10:32:19.566Z,100366.44
2022-10-28T10:34:58.460Z,100344.75
2022-10-28T10:37:25.347Z,100348.44
2022-10-28T10:40:19.090Z,100364.16
2022-10-28T10:42:57.456Z,100392.66
2022-10-28T10:45:33.188Z,100420.19
2022-10-28T10:48:15.189Z,100419.13
2022-10-28T10:50:47.744Z,100422.97
2022-10-28T10:53:22.641Z,100411.94
2022-10-28T10:55:55.370Z,100403.16
2022-10-28T10:58:26.430Z,100383.63
2022-10-28T11:00:57.773Z,100380.97
2022-10-28T11:03:30.481Z,100382.00
2022-10-28T11:08:48.294Z,100372.13
2022-10-28T11:11:20.982Z,100364.84
2022-10-28T11:14:01.552Z,100363.38
2022-10-28T11:16:28.314Z,100343.88
2022-10-28T11:18:55.106Z,100351.19
2022-10-28T11:21:49.207Z,100375.59
2022-10-28T11:24:37.334Z,100387.19
2022-10-28T11:27:20.633Z,100378.88
2022-10-28T11:29:48.963Z,100377.53
2022-10-28T11:32:45.301Z,100368.34
2022-10-28T11:35:49.986Z,100353.06
2022-10-28T11:38:58.786Z,100336.84
2022-10-28T11:41:46.656Z,100351.13
2022-10-28T11:44:35.073Z,100364.63
2022-10-28T11:47:43.972Z,100374.66
2022-10-28T11:50:36.632Z,100372.00
2022-10-28T11:53:48.554Z,100363.50
2022-10-28T11:56:39.411Z,100337.09
2022-10-28T12:00:03.094Z,100340.53
2022-10-28T12:02:58.742Z,100338.38
2022-10-28T12:05:42.030Z,100347.00
2022-10-28T12:08:56.050Z,100347.50
2022-10-28T12:11:45.613Z,100346.19
2022-10-28T12:14:27.692Z,100339.34
2022-10-28T12:17:03.680Z,100341.00
2022-10-28T12:19:35.920Z,100339.09
2022-10-28T12:22:12.618Z,100338.25
2022-10-28T12:24:45.716Z,100326.97
2022-10-28T12:27:22.321Z,100330.78
2022-10-28T12:29:56.776Z,100326.38
2022-10-28T12:32:32.092Z,100314.81
2022-10-28T12:35:06.223Z,100304.38
2022-10-28T12:37:44.687Z,100297.22
2022-10-28T12:40:20.532Z,100307.97
2022-10-28T12:42:56.813Z,100304.31
2022-10-28T12:45:25.066Z,100310.59
2022-10-28T12:48:04.270Z,100312.69
2022-10-28T12:50:42.276Z,100306.97
2022-10-28T12:53:30.987Z,100301.34
2022-10-28T12:56:01.710Z,100292.50
2022-10-28T12:58:36.190Z,100289.09
2022-10-28T13:01:10.125Z,100291.00
2022-10-28T13:03:37.450Z,100295.63
2022-10-28T13:06:45.755Z,100293.34
2022-10-28T13:09:53.335Z,100289.19
2022-10-28T13:13:09.228Z,100285.84
2022-10-28T13:16:27.841Z,100281.63
2022-10-28T13:19:29.129Z,100287.66
2022-10-28T13:22:20.408Z,100292.56
2022-10-28T13:25:00.304Z,100277.53
2022-10-28T13:27:28.195Z,100284.09
2022-10-28T13:30:00.081Z,100271.22
2022-10-28T13:32:38.398Z,100262.81
2022-10-28T13:35:21.653Z,100278.19
2022-10-28T13:37:52.740Z,100280.16
2022-10-28T13:41:09.459Z,100291.69
2022-10-28T13:44:25.689Z,100291.06
2022-10-28T13:47:30.456Z,100280.78
2022-10-28T13:50:21.672Z,100291.63
2022-10-28T13:53:38.208Z,100280.28
2022-10-28T13:56:25.395Z,100281.94
2022-10-28T13:58:55.757Z,100288.84
2022-10-28T14:02:07.837Z,100290.19
2022-10-28T14:04:54.646Z,100281.97
2022-10-28T14:07:25.001Z,100286.88
2022-10-28T14:09:58.093Z,100294.06
2022-10-28T14:12:32.324Z,100291.97
2022-10-28T14:15:16.620Z,100291.47
2022-10-28T14:17:51.642Z,100296.09
2022-10-28T14:20:29.999Z,100291.75
2022-10-28T14:22:57.794Z,100296.72
2022-10-28T14:26:02.014Z,100298.63
2022-10-28T14:28:52.595Z,100288.72
2022-10-28T14:31:52.721Z,100300.03
2022-10-28T14:34:44.051Z,100296.50
2022-10-28T14:37:48.573Z,100303.41
2022-10-28T14:40:24.561Z,100295.72
2022-10-28T14:43:15.849Z,100298.75
2022-10-28T14:46:02.298Z,100299.03
2022-10-28T14:48:47.576Z,100290.84
2022-10-28T14:51:19.492Z,100291.94
2022-10-28T14:53:50.566Z,100294.72
2022-10-28T14:56:24.680Z,100288.09
2022-10-28T14:58:54.946Z,100281.78
2022-10-28T15:01:47.369Z,100284.84
2022-10-28T15:04:20.624Z,100281.81
2022-10-28T15:06:51.782Z,100272.47
2022-10-28T15:09:24.802Z,100274.38
2022-10-28T15:11:55.641Z,100276.53
2022-10-28T15:14:31.926Z,100278.19
2022-10-28T15:17:02.764Z,100276.00
2022-10-28T15:19:34.626Z,100274.88
2022-10-28T15:22:12.896Z,100275.47
2022-10-28T15:24:44.604Z,100266.09
2022-10-28T15:27:15.135Z,100261.69
2022-10-28T15:29:42.899Z,100255.63
2022-10-28T15:32:25.465Z,100257.81
2022-10-28T15:34:52.893Z,100254.53
2022-10-28T15:37:24.019Z,100258.13
2022-10-28T15:40:12.353Z,100249.00
2022-10-28T15:42:44.514Z,100258.13
2022-10-28T15:45:22.818Z,100256.75
2022-10-28T15:47:49.874Z,100256.47
2022-10-28T15:50:31.550Z,100250.16
2022-10-28T15:53:31.700Z,100263.06
2022-10-28T15:56:25.091Z,100268.31
2022-10-28T15:59:15.163Z,100270.25
2022-10-28T16:01:42.253Z,100261.44
2022-10-28T16:04:43.354Z,100265.03
2022-10-28T16:07:11.068Z,100266.13
2022-10-28T16:09:46.730Z,100272.72
2022-10-28T16:12:19.977Z,100258.94
2022-10-28T16:14:54.136Z,100270.50
2022-10-28T16:17:25.173Z,100276.56
2022-10-28T16:19:56.471Z,100282.31
2022-10-28T16:22:27.154Z,100289.72
2022-10-28T16:24:55.458Z,100291.88
2022-10-28T16:27:26.550Z,100291.03
2022-10-28T16:29:53.893Z,100292.38
2022-10-28T16:32:27.737Z,100301.41
2022-10-28T16:34:55.919Z,100303.84
2022-10-28T16:37:25.166Z,100309.25
2022-10-28T16:39:52.706Z,100313.59
2022-10-28T16:42:21.776Z,100309.66
2022-10-28T16:44:51.207Z,100308.78
2022-10-28T16:47:21.821Z,100314.44
2022-10-28T16:49:52.489Z,100312.59
2022-10-28T16:52:26.609Z,100306.72
2022-10-28T16:54:54.426Z,100310.69
2022-10-28T16:59:52.383Z,100308.63
2022-10-28T17:02:25.355Z,100313.25
2022-10-28T17:04:52.209Z,100314.56
2022-10-28T17:07:18.993Z,100316.44
2022-10-28T17:09:46.057Z,100310.88
2022-10-28T17:12:15.474Z,100305.56
2022-10-28T17:14:43.122Z,100309.59
2022-10-28T17:17:12.151Z,100305.09
2022-10-28T17:19:41.214Z,100306.44
2022-10-28T17:22:10.560Z,100303.31
2022-10-28T17:24:38.289Z,100299.97
2022-10-28T17:27:07.125Z,100312.63
2022-10-28T17:29:34.186Z,100307.78
2022-10-28T17:32:01.124Z,100313.06
2022-10-28T17:34:29.242Z,100316.13
2022-10-28T17:36:56.328Z,100314.34
2022-10-28T17:39:26.117Z,100321.03
2022-10-28T17:41:53.854Z,100326.63
2022-10-28T17:44:20.766Z,100328.13
2022-10-28T17:46:48.227Z,100321.78
2022-10-28T17:49:15.783Z,100334.53
2022-10-28T17:51:44.500Z,100337.00
2022-10-28T17:54:11.553Z,100335.53
2022-10-28T17:56:38.462Z,100338.09
2022-10-28T17:59:05.575Z,100346.13
2022-10-28T18:01:34.600Z,100339.91
2022-10-28T18:04:02.522Z,100346.34
2022-10-28T18:06:29.264Z,100344.59
2022-10-28T18:08:57.330Z,100348.19
2022-10-28T18:11:24.336Z,100341.94
2022-10-28T18:13:51.282Z,100342.25
2022-10-28T18:16:22.270Z,100346.34
2022-10-28T18:18:49.084Z,100354.28
2022-10-28T18:21:16.087Z,100358.91
2022-10-28T18:23:42.878Z,100360.25
2022-10-28T18:26:14.017Z,100351.19
2022-10-28T18:28:43.632Z,100359.91
2022-10-28T18:31:12.981Z,100359.06
2022-10-28T18:33:41.340Z,100355.41
2022-10-28T18:36:12.982Z,100363.84
2022-10-28T18:38:39.984Z,100368.97
2022-10-28T18:41:11.759Z,100370.06
2022-10-28T18:43:38.767Z,100372.44
2022-10-28T18:46:06.389Z,100366.63
2022-10-28T18:48:33.321Z,100369.03
2022-10-28T18:51:02.940Z,100372.25
2022-10-28T18:53:29.697Z,100364.28
2022-10-28T18:56:00.495Z,100368.94
2022-10-28T18:58:28.992Z,100370.00
2022-10-28T19:01:04.869Z,100369.06
2022-10-28T19:03:31.944Z,100377.63
2022-10-28T19:06:05.252Z,100373.00
2022-10-28T19:08:32.696Z,100368.03
2022-10-28T19:11:01.583Z,100368.88
2022-10-28T19:13:33.207Z,100368.50
2022-10-28T19:16:03.697Z,100360.56
2022-10-28T19:18:31.111Z,100369.00
2022-10-28T19:21:02.447Z,100367.19
2022-10-28T19:23:29.250Z,100371.56
2022-10-28T19:25:57.000Z,100369.09
2022-10-28T19:28:24.086Z,100376.72
2022-10-28T19:31:00.315Z,100379.94
2022-10-28T19:33:28.618Z,100378.47
2022-10-28T19:36:03.818Z,100373.78
2022-10-28T19:38:32.924Z,100376.00
2022-10-28T19:41:08.476Z,100372.09
2022-10-28T19:43:36.531Z,100377.34
2022-10-28T19:46:11.668Z,100373.91
2022-10-28T19:48:44.414Z,100384.94
2022-10-28T19:51:15.902Z,100371.31
2022-10-28T19:53:47.781Z,100365.97
2022-10-28T19:56:15.420Z,100380.44
2022-10-28T19:58:42.240Z,100373.69
2022-10-28T20:01:10.778Z,100376.41
2022-10-28T20:03:39.346Z,100380.56
2022-10-28T20:06:09.318Z,100383.03
2022-10-28T20:08:39.005Z,100388.72
2022-10-28T20:11:08.961Z,100391.69
2022-10-28T20:13:36.757Z,100391.13
2022-10-28T20:16:07.585Z,100394.56
2022-10-28T20:18:36.323Z,100392.31
2022-10-28T20:21:06.073Z,100395.13
2022-10-28T20:23:34.145Z,100399.41
2022-10-28T20:26:01.871Z,100404.72
2022-10-28T20:28:28.772Z,100405.66
2022-10-28T20:31:01.326Z,100402.06
2022-10-28T20:33:29.628Z,100409.06
2022-10-28T20:35:58.311Z,100411.19
2022-10-28T20:38:26.008Z,100408.34
2022-10-28T20:40:56.022Z,100411.06
2022-10-28T20:43:26.313Z,100416.28
2022-10-28T20:45:55.631Z,100426.34
2022-10-28T20:48:23.190Z,100419.72
2022-10-28T20:50:52.701Z,100424.69
2022-10-28T20:53:22.000Z,100429.03
2022-10-28T20:55:50.654Z,100435.69
2022-10-28T20:58:17.762Z,100429.41
2022-10-28T21:00:44.752Z,100434.63
2022-10-28T21:03:11.711Z,100437.81
2022-10-28T21:05:41.306Z,100443.88
2022-10-28T21:08:09.400Z,100446.75
2022-10-28T21:10:38.731Z,100437.97
2022-10-28T21:13:06.940Z,100439.03
2022-10-28T21:15:36.746Z,100440.69
2022-10-28T21:18:05.047Z,100443.66
2022-10-28T21:20:34.265Z,100440.66
2022-10-28T21:23:01.617Z,100438.16
2022-10-28T21:25:28.753Z,100437.50
2022-10-28T21:27:58.324Z,100436.38
2022-10-28T21:30:25.900Z,100446.81
2022-10-28T21:32:53.692Z,100444.25
2022-10-28T21:35:20.875Z,100444.38
2022-10-28T21:37:48.192Z,100443.69
2022-10-28T21:40:15.508Z,100440.75
2022-10-28T21:42:47.670Z,100439.09
2022-10-28T21:45:16.687Z,100444.06
2022-10-28T21:47:43.650Z,100444.16
2022-10-28T21:50:10.639Z,100442.34
2022-10-28T21:52:37.537Z,100444.31
2022-10-28T21:55:14.651Z,100438.13
2022-10-28T21:57:47.918Z,100430.91
2022-10-28T22:00:16.416Z,100436.53
2022-10-28T22:02:43.305Z,100443.00
2022-10-28T22:05:10.189Z,100443.00
2022-10-28T22:07:37.228Z,100446.34
2022-10-28T22:10:06.537Z,100448.63
2022-10-28T22:12:33.368Z,100455.13
2022-10-28T22:15:00.734Z,100458.09
2022-10-28T22:17:28.924Z,100469.34
2022-10-28T22:19:55.771Z,100475.84
2022-10-28T22:22:22.753Z,100472.84
2022-10-28T22:24:49.627Z,100469.59
2022-10-28T22:27:16.764Z,100482.75
2022-10-28T22:29:43.496Z,100476.16
2022-10-28T22:32:10.577Z,100485.63
2022-10-28T22:34:38.933Z,100481.06
2022-10-28T22:37:05.830Z,100488.66
2022-10-28T22:39:32.763Z,100498.91
2022-10-28T22:41:59.979Z,100493.41
2022-10-28T22:44:26.811Z,100491.47
2022-10-28T22:46:54.124Z,100487.91
2022-10-28T22:49:21.038Z,100491.91
2022-10-28T22:51:49.742Z,100488.97
2022-10-28T22:54:16.763Z,100496.06
2022-10-28T22:56:43.810Z,100489.78
2022-10-28T22:59:11.141Z,100499.22
2022-10-28T23:01:39.238Z,100493.25
2022-10-28T23:04:10.937Z,100488.88
2022-10-28T23:06:38.213Z,100490.34
2022-10-28T23:09:06.525Z,100489.31
2022-10-28T23:11:33.447Z,100492.63
2022-10-28T23:14:00.307Z,100493.47
2022-10-28T23:16:27.232Z,100503.13
2022-10-28T23:18:54.393Z,100490.97
2022-10-28T23:21:23.684Z,100499.75
2022-10-28T23:23:54.134Z,100482.97
2022-10-28T23:26:24.500Z,100489.47
2022-10-28T23:28:53.463Z,100492.19
2022-10-28T23:31:21.964Z,100496.59
2022-10-28T23:33:49.849Z,100499.31
2022-10-28T23:36:17.203Z,100484.25
2022-10-28T23:38:44.193Z,100469.66
2022-10-28T23:41:14.293Z,100486.00
2022-10-28T23:43:42.821Z,100483.88
2022-10-28T23:46:10.517Z,100481.47
2022-10-28T23:48:37.586Z,100480.28
2022-10-28T23:51:04.868Z,100480.06
2022-10-28T23:53:31.750Z,100482.13
2022-10-28T23:55:58.983Z,100479.38
2022-10-28T23:58:26.128Z,100471.19
